sensor_id;sensor_type;location;lat;lon;timestamp;pressure;altitude;pressure_sealevel;temperature;humidity
41246;BME280;53880;47.526;18.986;2024-03-29T00:01:16;98804.09;;;20.51;nan
41246;BME280;53880;47.526;18.986;2024-03-29T00:03:41;98815.81;;;20.50;nan
41246;BME280;53880;47.526;18.986;2024-03-29T00:05:59;98824.84;;;20.49;nan
41246;BME280;53880;47.526;18.986;2024-03-29T00:08:18;98831.22;;;20.48;nan
41246;BME280;53880;47.526;18.986;2024-03-29T00:10:33;98823.22;;;20.48;nan
41246;BME280;53880;47.526;18.986;2024-03-29T00:12:51;98826.88;;;20.47;nan
41246;BME280;53880;47.526;18.986;2024-03-29T00:15:08;98860.84;;;20.46;nan
41246;BME280;53880;47.526;18.986;2024-03-29T00:17:28;98883.47;;;20.44;nan
41246;BME280;53880;47.526;18.986;2024-03-29T00:19:48;98862.06;;;20.44;nan
41246;BME280;53880;47.526;18.986;2024-03-29T00:22:08;98868.41;;;20.43;nan
41246;BME280;53880;47.526;18.986;2024-03-29T00:24:27;98864.25;;;20.40;nan
41246;BME280;53880;47.526;18.986;2024-03-29T00:26:47;98881.34;;;20.39;nan
41246;BME280;53880;47.526;18.986;2024-03-29T00:29:05;98893.03;;;20.38;nan
41246;BME280;53880;47.526;18.986;2024-03-29T00:31:24;98900.06;;;20.39;nan
41246;BME280;53880;47.526;18.986;2024-03-29T00:33:45;98881.50;;;20.38;nan
41246;BME280;53880;47.526;18.986;2024-03-29T00:36:02;98870.00;;;20.37;nan
41246;BME280;53880;47.526;18.986;2024-03-29T00:38:21;98877.81;;;20.39;nan
41246;BME280;53880;47.526;18.986;2024-03-29T00:40:38;98892.69;;;20.41;nan
41246;BME280;53880;47.526;18.986;2024-03-29T00:42:58;98910.22;;;20.44;nan
41246;BME280;53880;47.526;18.986;2024-03-29T00:45:18;98929.59;;;20.46;nan
41246;BME280;53880;47.526;18.986;2024-03-29T00:47:33;98920.72;;;20.45;nan
41246;BME280;53880;47.526;18.986;2024-03-29T00:49:50;98912.03;;;20.43;nan
41246;BME280;53880;47.526;18.986;2024-03-29T00:52:11;98916.56;;;20.43;nan
41246;BME280;53880;47.526;18.986;2024-03-29T00:54:31;98934.66;;;20.41;nan
41246;BME280;53880;47.526;18.986;2024-03-29T00:56:46;98938.34;;;20.40;nan
41246;BME280;53880;47.526;18.986;2024-03-29T00:59:04;98936.66;;;20.39;nan
41246;BME280;53880;47.526;18.986;2024-03-29T01:01:19;98934.19;;;20.37;nan
41246;BME280;53880;47.526;18.986;2024-03-29T01:03:34;98944.06;;;20.37;nan
41246;BME280;53880;47.526;18.986;2024-03-29T01:05:54;98928.19;;;20.35;nan
41246;BME280;53880;47.526;18.986;2024-03-29T01:08:12;98936.22;;;20.35;nan
41246;BME280;53880;47.526;18.986;2024-03-29T01:10:27;98935.38;;;20.35;nan
41246;BME280;53880;47.526;18.986;2024-03-29T01:12:42;98922.19;;;20.33;nan
41246;BME280;53880;47.526;18.986;2024-03-29T01:15:01;98919.53;;;20.33;nan
41246;BME280;53880;47.526;18.986;2024-03-29T01:17:24;98919.69;;;20.32;nan
41246;BME280;53880;47.526;18.986;2024-03-29T01:19:44;98934.94;;;20.31;nan
41246;BME280;53880;47.526;18.986;2024-03-29T01:21:59;98947.28;;;20.32;nan
41246;BME280;53880;47.526;18.986;2024-03-29T01:24:17;98943.13;;;20.30;nan
41246;BME280;53880;47.526;18.986;2024-03-29T01:26:34;98954.00;;;20.28;nan
41246;BME280;53880;47.526;18.986;2024-03-29T01:28:54;98971.88;;;20.28;nan
41246;BME280;53880;47.526;18.986;2024-03-29T01:31:14;98975.59;;;20.27;nan
41246;BME280;53880;47.526;18.986;2024-03-29T01:33:34;98982.59;;;20.28;nan
41246;BME280;53880;47.526;18.986;2024-03-29T01:35:57;98971.06;;;20.27;nan
41246;BME280;53880;47.526;18.986;2024-03-29T01:38:15;98973.91;;;20.26;nan
41246;BME280;53880;47.526;18.986;2024-03-29T01:40:30;98980.28;;;20.25;nan
41246;BME280;53880;47.526;18.986;2024-03-29T01:42:53;98985.81;;;20.23;nan
41246;BME280;53880;47.526;18.986;2024-03-29T01:45:10;98986.00;;;20.22;nan
41246;BME280;53880;47.526;18.986;2024-03-29T01:47:30;99004.53;;;20.23;nan
41246;BME280;53880;47.526;18.986;2024-03-29T01:49:45;99003.88;;;20.21;nan
41246;BME280;53880;47.526;18.986;2024-03-29T01:52:02;98996.69;;;20.22;nan
41246;BME280;53880;47.526;18.986;2024-03-29T01:54:22;99005.72;;;20.21;nan
41246;BME280;53880;47.526;18.986;2024-03-29T01:56:43;99012.94;;;20.20;nan
41246;BME280;53880;47.526;18.986;2024-03-29T01:59:03;99013.06;;;20.19;nan
41246;BME280;53880;47.526;18.986;2024-03-29T02:01:23;99023.94;;;20.17;nan
41246;BME280;53880;47.526;18.986;2024-03-29T02:03:41;99028.09;;;20.20;nan
41246;BME280;53880;47.526;18.986;2024-03-29T02:06:02;99043.28;;;20.27;nan
41246;BME280;53880;47.526;18.986;2024-03-29T02:08:18;99063.47;;;20.30;nan
41246;BME280;53880;47.526;18.986;2024-03-29T02:10:39;99066.34;;;20.28;nan
41246;BME280;53880;47.526;18.986;2024-03-29T02:12:56;99065.50;;;20.28;nan
41246;BME280;53880;47.526;18.986;2024-03-29T02:15:15;99079.72;;;20.28;nan
41246;BME280;53880;47.526;18.986;2024-03-29T02:17:34;99081.38;;;20.29;nan
41246;BME280;53880;47.526;18.986;2024-03-29T02:19:56;99097.91;;;20.33;nan
41246;BME280;53880;47.526;18.986;2024-03-29T02:22:19;99108.78;;;20.31;nan
41246;BME280;53880;47.526;18.986;2024-03-29T02:24:41;99116.97;;;20.30;nan
41246;BME280;53880;47.526;18.986;2024-03-29T02:26:56;99122.16;;;20.31;nan
41246;BME280;53880;47.526;18.986;2024-03-29T02:29:14;99132.03;;;20.31;nan
41246;BME280;53880;47.526;18.986;2024-03-29T02:31:31;99136.06;;;20.27;nan
41246;BME280;53880;47.526;18.986;2024-03-29T02:33:47;99136.06;;;20.27;nan
41246;BME280;53880;47.526;18.986;2024-03-29T02:36:04;99137.06;;;20.26;nan
41246;BME280;53880;47.526;18.986;2024-03-29T02:38:24;99147.97;;;20.24;nan
41246;BME280;53880;47.526;18.986;2024-03-29T02:40:49;99163.16;;;20.24;nan
41246;BME280;53880;47.526;18.986;2024-03-29T02:43:09;99149.13;;;20.22;nan
41246;BME280;53880;47.526;18.986;2024-03-29T02:45:26;99152.47;;;20.24;nan
41246;BME280;53880;47.526;18.986;2024-03-29T02:47:44;99154.50;;;20.22;nan
41246;BME280;53880;47.526;18.986;2024-03-29T02:50:05;99166.50;;;20.26;nan
41246;BME280;53880;47.526;18.986;2024-03-29T02:52:24;99166.31;;;20.27;nan
41246;BME280;53880;47.526;18.986;2024-03-29T02:54:44;99173.34;;;20.28;nan
41246;BME280;53880;47.526;18.986;2024-03-29T02:57:01;99159.13;;;20.28;nan
41246;BME280;53880;47.526;18.986;2024-03-29T02:59:16;99165.31;;;20.28;nan
41246;BME280;53880;47.526;18.986;2024-03-29T03:01:36;99171.66;;;20.27;nan
41246;BME280;53880;47.526;18.986;2024-03-29T03:03:51;99177.84;;;20.28;nan
41246;BME280;53880;47.526;18.986;2024-03-29T03:06:07;99179.03;;;20.25;nan
41246;BME280;53880;47.526;18.986;2024-03-29T03:08:26;99178.22;;;20.25;nan
41246;BME280;53880;47.526;18.986;2024-03-29T03:11:01;99178.38;;;20.23;nan
41246;BME280;53880;47.526;18.986;2024-03-29T03:13:23;99186.59;;;20.22;nan
41246;BME280;53880;47.526;18.986;2024-03-29T03:15:39;99187.41;;;20.22;nan
41246;BME280;53880;47.526;18.986;2024-03-29T03:17:56;99197.09;;;20.23;nan
41246;BME280;53880;47.526;18.986;2024-03-29T03:20:14;99205.13;;;20.23;nan
41246;BME280;53880;47.526;18.986;2024-03-29T03:22:35;99208.63;;;20.24;nan
41246;BME280;53880;47.526;18.986;2024-03-29T03:24:56;99209.97;;;20.20;nan
41246;BME280;53880;47.526;18.986;2024-03-29T03:27:16;99216.50;;;20.17;nan
41246;BME280;53880;47.526;18.986;2024-03-29T03:29:41;99214.84;;;20.16;nan
41246;BME280;53880;47.526;18.986;2024-03-29T03:32:01;99218.31;;;20.17;nan
41246;BME280;53880;47.526;18.986;2024-03-29T03:34:19;99210.31;;;20.17;nan
41246;BME280;53880;47.526;18.986;2024-03-29T03:36:38;99212.16;;;20.16;nan
41246;BME280;53880;47.526;18.986;2024-03-29T03:38:54;99212.16;;;20.16;nan
41246;BME280;53880;47.526;18.986;2024-03-29T03:41:11;99208.47;;;20.17;nan
41246;BME280;53880;47.526;18.986;2024-03-29T03:43:31;99208.47;;;20.17;nan
41246;BME280;53880;47.526;18.986;2024-03-29T03:45:51;99222.03;;;20.16;nan
41246;BME280;53880;47.526;18.986;2024-03-29T03:48:10;99220.34;;;20.15;nan
41246;BME280;53880;47.526;18.986;2024-03-29T03:50:28;99221.38;;;20.14;nan
41246;BME280;53880;47.526;18.986;2024-03-29T03:52:43;99222.53;;;20.11;nan
41246;BME280;53880;47.526;18.986;2024-03-29T03:55:01;99219.03;;;20.11;nan
41246;BME280;53880;47.526;18.986;2024-03-29T03:57:18;99214.84;;;20.08;nan
41246;BME280;53880;47.526;18.986;2024-03-29T03:59:35;99221.88;;;20.09;nan
41246;BME280;53880;47.526;18.986;2024-03-29T04:01:51;99220.06;;;20.10;nan
41246;BME280;53880;47.526;18.986;2024-03-29T04:04:09;99231.56;;;20.10;nan
41246;BME280;53880;47.526;18.986;2024-03-29T04:06:27;99231.75;;;20.09;nan
41246;BME280;53880;47.526;18.986;2024-03-29T04:08:47;99237.28;;;20.07;nan
41246;BME280;53880;47.526;18.986;2024-03-29T04:11:05;99244.28;;;20.08;nan
41246;BME280;53880;47.526;18.986;2024-03-29T04:13:22;99248.97;;;20.06;nan
41246;BME280;53880;47.526;18.986;2024-03-29T04:15:45;99250.97;;;20.04;nan
41246;BME280;53880;47.526;18.986;2024-03-29T04:18:00;99264.53;;;20.03;nan
41246;BME280;53880;47.526;18.986;2024-03-29T04:20:17;99274.06;;;20.05;nan
41246;BME280;53880;47.526;18.986;2024-03-29T04:22:35;99275.03;;;20.04;nan
41246;BME280;53880;47.526;18.986;2024-03-29T04:24:52;99276.41;;;20.00;nan
41246;BME280;53880;47.526;18.986;2024-03-29T04:27:11;99279.72;;;20.02;nan
41246;BME280;53880;47.526;18.986;2024-03-29T04:29:27;99287.94;;;20.01;nan
41246;BME280;53880;47.526;18.986;2024-03-29T04:31:49;99274.56;;;20.01;nan
41246;BME280;53880;47.526;18.986;2024-03-29T04:34:08;99275.41;;;20.01;nan
41246;BME280;53880;47.526;18.986;2024-03-29T04:36:26;99280.06;;;19.99;nan
41246;BME280;53880;47.526;18.986;2024-03-29T04:38:41;99282.59;;;20.01;nan
41246;BME280;53880;47.526;18.986;2024-03-29T04:40:57;99292.25;;;20.02;nan
41246;BME280;53880;47.526;18.986;2024-03-29T04:43:13;99288.78;;;20.01;nan
41246;BME280;53880;47.526;18.986;2024-03-29T04:45:30;99297.59;;;20.02;nan
41246;BME280;53880;47.526;18.986;2024-03-29T04:47:50;99297.59;;;20.02;nan
41246;BME280;53880;47.526;18.986;2024-03-29T04:50:09;99306.66;;;20.01;nan
41246;BME280;53880;47.526;18.986;2024-03-29T04:52:26;99306.81;;;19.99;nan
41246;BME280;53880;47.526;18.986;2024-03-29T04:54:43;99313.00;;;20.00;nan
41246;BME280;53880;47.526;18.986;2024-03-29T04:57:06;99313.19;;;19.98;nan
41246;BME280;53880;47.526;18.986;2024-03-29T04:59:26;99318.53;;;19.98;nan
41246;BME280;53880;47.526;18.986;2024-03-29T05:01:46;99317.69;;;19.98;nan
41246;BME280;53880;47.526;18.986;2024-03-29T05:04:10;99311.16;;;20.00;nan
41246;BME280;53880;47.526;18.986;2024-03-29T05:06:29;99320.88;;;20.01;nan
41246;BME280;53880;47.526;18.986;2024-03-29T05:08:47;99324.34;;;20.02;nan
41246;BME280;53880;47.526;18.986;2024-03-29T05:11:02;99323.53;;;20.01;nan
41246;BME280;53880;47.526;18.986;2024-03-29T05:13:22;99330.72;;;20.01;nan
41246;BME280;53880;47.526;18.986;2024-03-29T05:15:45;99329.69;;;20.02;nan
41246;BME280;53880;47.526;18.986;2024-03-29T05:18:02;99328.53;;;20.04;nan
41246;BME280;53880;47.526;18.986;2024-03-29T05:20:18;99345.22;;;20.06;nan
41246;BME280;53880;47.526;18.986;2024-03-29T05:22:38;99338.88;;;20.07;nan
41246;BME280;53880;47.526;18.986;2024-03-29T05:24:58;99331.69;;;20.08;nan
41246;BME280;53880;47.526;18.986;2024-03-29T05:27:16;99333.19;;;20.10;nan
41246;BME280;53880;47.526;18.986;2024-03-29T05:29:40;99341.06;;;20.12;nan
41246;BME280;53880;47.526;18.986;2024-03-29T05:32:00;99344.22;;;20.15;nan
41246;BME280;53880;47.526;18.986;2024-03-29T05:34:19;99343.88;;;20.18;nan
41246;BME280;53880;47.526;18.986;2024-03-29T05:36:34;99356.59;;;20.24;nan
41246;BME280;53880;47.526;18.986;2024-03-29T05:38:56;99349.69;;;20.30;nan
41246;BME280;53880;47.526;18.986;2024-03-29T05:41:13;99352.50;;;20.36;nan
41246;BME280;53880;47.526;18.986;2024-03-29T05:43:31;99360.50;;;20.44;nan
41246;BME280;53880;47.526;18.986;2024-03-29T05:45:46;99373.50;;;20.56;nan
41246;BME280;53880;47.526;18.986;2024-03-29T05:48:04;99375.97;;;20.65;nan
41246;BME280;53880;47.526;18.986;2024-03-29T05:50:25;99372.91;;;20.76;nan
41246;BME280;53880;47.526;18.986;2024-03-29T05:52:43;99378.22;;;20.84;nan
41246;BME280;53880;47.526;18.986;2024-03-29T05:55:00;99377.31;;;20.92;nan
41246;BME280;53880;47.526;18.986;2024-03-29T05:57:23;99374.63;;;21.00;nan
41246;BME280;53880;47.526;18.986;2024-03-29T05:59:47;99382.63;;;21.08;nan
41246;BME280;53880;47.526;18.986;2024-03-29T06:02:05;99387.13;;;21.15;nan
41246;BME280;53880;47.526;18.986;2024-03-29T06:04:22;99389.09;;;21.21;nan
41246;BME280;53880;47.526;18.986;2024-03-29T06:06:49;99380.31;;;21.27;nan
41246;BME280;53880;47.526;18.986;2024-03-29T06:09:07;99381.81;;;21.30;nan
41246;BME280;53880;47.526;18.986;2024-03-29T06:11:22;99391.16;;;21.34;nan
41246;BME280;53880;47.526;18.986;2024-03-29T06:13:40;99391.81;;;21.36;nan
41246;BME280;53880;47.526;18.986;2024-03-29T06:16:10;99389.78;;;21.38;nan
41246;BME280;53880;47.526;18.986;2024-03-29T06:18:43;99387.94;;;21.39;nan
41246;BME280;53880;47.526;18.986;2024-03-29T06:21:06;99380.75;;;21.39;nan
41246;BME280;53880;47.526;18.986;2024-03-29T06:23:23;99372.53;;;21.41;nan
41246;BME280;53880;47.526;18.986;2024-03-29T06:25:44;99375.19;;;21.41;nan
41246;BME280;53880;47.526;18.986;2024-03-29T06:28:01;99389.78;;;21.38;nan
41246;BME280;53880;47.526;18.986;2024-03-29T06:30:17;99405.88;;;21.38;nan
41246;BME280;53880;47.526;18.986;2024-03-29T06:32:32;99405.88;;;21.38;nan
41246;BME280;53880;47.526;18.986;2024-03-29T06:34:47;99398.66;;;21.39;nan
41246;BME280;53880;47.526;18.986;2024-03-29T06:37:07;99403.66;;;21.42;nan
41246;BME280;53880;47.526;18.986;2024-03-29T06:39:30;99405.34;;;21.43;nan
41246;BME280;53880;47.526;18.986;2024-03-29T06:41:47;99406.97;;;21.44;nan
41246;BME280;53880;47.526;18.986;2024-03-29T06:44:07;99413.84;;;21.46;nan
41246;BME280;53880;47.526;18.986;2024-03-29T06:46:27;99414.88;;;21.45;nan
41246;BME280;53880;47.526;18.986;2024-03-29T06:48:45;99414.22;;;21.43;nan
41246;BME280;53880;47.526;18.986;2024-03-29T06:51:02;99411.03;;;21.40;nan
41246;BME280;53880;47.526;18.986;2024-03-29T06:53:17;99398.81;;;21.37;nan
41246;BME280;53880;47.526;18.986;2024-03-29T06:55:32;99401.34;;;21.39;nan
41246;BME280;53880;47.526;18.986;2024-03-29T06:57:51;99398.66;;;21.39;nan
41246;BME280;53880;47.526;18.986;2024-03-29T07:00:06;99390.63;;;21.39;nan
41246;BME280;53880;47.526;18.986;2024-03-29T07:02:26;99409.00;;;21.42;nan
41246;BME280;53880;47.526;18.986;2024-03-29T07:04:43;99406.97;;;21.44;nan
41246;BME280;53880;47.526;18.986;2024-03-29T07:07:06;99408.31;;;21.48;nan
41246;BME280;53880;47.526;18.986;2024-03-29T07:09:26;99405.44;;;21.49;nan
41246;BME280;53880;47.526;18.986;2024-03-29T07:11:45;99412.66;;;21.49;nan
41246;BME280;53880;47.526;18.986;2024-03-29T07:14:00;99415.97;;;21.51;nan
41246;BME280;53880;47.526;18.986;2024-03-29T07:16:18;99413.84;;;21.46;nan
41246;BME280;53880;47.526;18.986;2024-03-29T07:18:35;99421.72;;;21.48;nan
41246;BME280;53880;47.526;18.986;2024-03-29T07:20:50;99418.66;;;21.51;nan
41246;BME280;53880;47.526;18.986;2024-03-29T07:23:05;99439.75;;;21.54;nan
41246;BME280;53880;47.526;18.986;2024-03-29T07:25:23;99443.28;;;21.54;nan
41246;BME280;53880;47.526;18.986;2024-03-29T07:27:40;99444.09;;;21.55;nan
41246;BME280;53880;47.526;18.986;2024-03-29T07:30:02;99445.97;;;21.54;nan
41246;BME280;53880;47.526;18.986;2024-03-29T07:32:18;99449.44;;;21.55;nan
41246;BME280;53880;47.526;18.986;2024-03-29T07:34:36;99449.66;;;21.53;nan
41246;BME280;53880;47.526;18.986;2024-03-29T07:36:56;99451.66;;;21.51;nan
41246;BME280;53880;47.526;18.986;2024-03-29T07:39:11;99452.66;;;21.50;nan
41246;BME280;53880;47.526;18.986;2024-03-29T07:41:30;99454.69;;;21.48;nan
41246;BME280;53880;47.526;18.986;2024-03-29T07:43:56;99452.00;;;21.48;nan
41246;BME280;53880;47.526;18.986;2024-03-29T07:46:16;99447.97;;;21.52;nan
41246;BME280;53880;47.526;18.986;2024-03-29T07:48:34;99453.88;;;21.48;nan
41246;BME280;53880;47.526;18.986;2024-03-29T07:50:50;99457.31;;;21.34;nan
41246;BME280;53880;47.526;18.986;2024-03-29T07:53:05;99456.38;;;21.18;nan
41246;BME280;53880;47.526;18.986;2024-03-29T07:55:20;99461.28;;;21.07;nan
41246;BME280;53880;47.526;18.986;2024-03-29T07:57:38;99452.81;;;20.95;nan
41246;BME280;53880;47.526;18.986;2024-03-29T07:59:55;99448.81;;;20.91;nan
41246;BME280;53880;47.526;18.986;2024-03-29T08:02:13;99444.63;;;20.89;nan
41246;BME280;53880;47.526;18.986;2024-03-29T08:04:31;99453.66;;;20.88;nan
41246;BME280;53880;47.526;18.986;2024-03-29T08:06:46;99459.84;;;20.88;nan
41246;BME280;53880;47.526;18.986;2024-03-29T08:09:03;99462.19;;;20.91;nan
41246;BME280;53880;47.526;18.986;2024-03-29T08:11:18;99461.84;;;20.94;nan
41246;BME280;53880;47.526;18.986;2024-03-29T08:13:36;99465.69;;;21.00;nan
41246;BME280;53880;47.526;18.986;2024-03-29T08:15:58;99467.03;;;21.04;nan
41246;BME280;53880;47.526;18.986;2024-03-29T08:18:16;99480.03;;;21.07;nan
41246;BME280;53880;47.526;18.986;2024-03-29T08:20:36;99474.34;;;21.10;nan
41246;BME280;53880;47.526;18.986;2024-03-29T08:23:00;99470.50;;;21.12;nan
41246;BME280;53880;47.526;18.986;2024-03-29T08:25:17;99465.78;;;21.14;nan
41246;BME280;53880;47.526;18.986;2024-03-29T08:27:37;99475.31;;;21.17;nan
41246;BME280;53880;47.526;18.986;2024-03-29T08:29:56;99469.44;;;21.21;nan
41246;BME280;53880;47.526;18.986;2024-03-29T08:32:13;99467.25;;;21.25;nan
41246;BME280;53880;47.526;18.986;2024-03-29T08:34:31;99465.22;;;21.27;nan
41246;BME280;53880;47.526;18.986;2024-03-29T08:36:51;99461.16;;;21.31;nan
41246;BME280;53880;47.526;18.986;2024-03-29T08:39:13;99453.78;;;21.33;nan
41246;BME280;53880;47.526;18.986;2024-03-29T08:41:31;99464.16;;;21.36;nan
41246;BME280;53880;47.526;18.986;2024-03-29T08:43:49;99461.28;;;21.38;nan
41246;BME280;53880;47.526;18.986;2024-03-29T08:46:06;99451.41;;;21.38;nan
41246;BME280;53880;47.526;18.986;2024-03-29T08:48:24;99453.25;;;21.38;nan
41246;BME280;53880;47.526;18.986;2024-03-29T08:50:40;99450.75;;;21.36;nan
41246;BME280;53880;47.526;18.986;2024-03-29T08:52:57;99453.63;;;21.35;nan
41246;BME280;53880;47.526;18.986;2024-03-29T08:55:14;99453.97;;;21.32;nan
41246;BME280;53880;47.526;18.986;2024-03-29T08:57:32;99453.50;;;21.28;nan
41246;BME280;53880;47.526;18.986;2024-03-29T08:59:50;99460.88;;;21.26;nan
41246;BME280;53880;47.526;18.986;2024-03-29T09:02:08;99459.19;;;21.25;nan
41246;BME280;53880;47.526;18.986;2024-03-29T09:04:29;99454.03;;;21.23;nan
41246;BME280;53880;47.526;18.986;2024-03-29T09:06:51;99452.06;;;21.17;nan
41246;BME280;53880;47.526;18.986;2024-03-29T09:09:13;99446.56;;;21.11;nan
41246;BME280;53880;47.526;18.986;2024-03-29T09:11:31;99440.25;;;21.04;nan
41246;BME280;53880;47.526;18.986;2024-03-29T09:13:51;99445.09;;;21.00;nan
41246;BME280;53880;47.526;18.986;2024-03-29T09:16:13;99435.56;;;20.98;nan
41246;BME280;53880;47.526;18.986;2024-03-29T09:18:30;99440.41;;;20.94;nan
41246;BME280;53880;47.526;18.986;2024-03-29T09:20:55;99434.91;;;20.88;nan
41246;BME280;53880;47.526;18.986;2024-03-29T09:23:13;99430.94;;;20.84;nan
41246;BME280;53880;47.526;18.986;2024-03-29T09:25:41;99429.78;;;20.78;nan
41246;BME280;53880;47.526;18.986;2024-03-29T09:27:58;99443.03;;;20.72;nan
41246;BME280;53880;47.526;18.986;2024-03-29T09:30:14;99440.88;;;20.67;nan
41246;BME280;53880;47.526;18.986;2024-03-29T09:32:32;99442.06;;;20.65;nan
41246;BME280;53880;47.526;18.986;2024-03-29T09:34:50;99442.06;;;20.65;nan
41246;BME280;53880;47.526;18.986;2024-03-29T09:37:05;99435.03;;;20.64;nan
41246;BME280;53880;47.526;18.986;2024-03-29T09:39:23;99440.56;;;20.62;nan
41246;BME280;53880;47.526;18.986;2024-03-29T09:41:47;99442.41;;;20.62;nan
41246;BME280;53880;47.526;18.986;2024-03-29T09:44:03;99441.38;;;20.63;nan
41246;BME280;53880;47.526;18.986;2024-03-29T09:46:23;99443.75;;;20.66;nan
41246;BME280;53880;47.526;18.986;2024-03-29T09:48:44;99430.78;;;20.77;nan
41246;BME280;53880;47.526;18.986;2024-03-29T09:51:08;99425.91;;;20.89;nan
41246;BME280;53880;47.526;18.986;2024-03-29T09:53:24;99429.19;;;20.99;nan
41246;BME280;53880;47.526;18.986;2024-03-29T09:55:43;99415.63;;;21.08;nan
41246;BME280;53880;47.526;18.986;2024-03-29T09:58:02;99422.94;;;21.14;nan
41246;BME280;53880;47.526;18.986;2024-03-29T10:00:18;99423.59;;;21.16;nan
41246;BME280;53880;47.526;18.986;2024-03-29T10:02:35;99422.03;;;21.22;nan
41246;BME280;53880;47.526;18.986;2024-03-29T10:04:55;99414.63;;;21.32;nan
41246;BME280;53880;47.526;18.986;2024-03-29T10:07:19;99413.25;;;21.36;nan
41246;BME280;53880;47.526;18.986;2024-03-29T10:09:39;99410.38;;;21.38;nan
41246;BME280;53880;47.526;18.986;2024-03-29T10:12:01;99406.41;;;21.34;nan
41246;BME280;53880;47.526;18.986;2024-03-29T10:14:24;99402.75;;;21.26;nan
41246;BME280;53880;47.526;18.986;2024-03-29T10:16:42;99403.00;;;21.17;nan
41246;BME280;53880;47.526;18.986;2024-03-29T10:19:00;99401.69;;;21.13;nan
41246;BME280;53880;47.526;18.986;2024-03-29T10:21:24;99407.47;;;21.24;nan
41246;BME280;53880;47.526;18.986;2024-03-29T10:23:39;99401.69;;;21.36;nan
41246;BME280;53880;47.526;18.986;2024-03-29T10:25:58;99397.00;;;21.38;nan
41246;BME280;53880;47.526;18.986;2024-03-29T10:28:20;99405.88;;;21.38;nan
41246;BME280;53880;47.526;18.986;2024-03-29T10:30:35;99390.13;;;21.35;nan
41246;BME280;53880;47.526;18.986;2024-03-29T10:32:58;99399.31;;;21.41;nan
41246;BME280;53880;47.526;18.986;2024-03-29T10:35:13;99403.50;;;21.43;nan
41246;BME280;53880;47.526;18.986;2024-03-29T10:37:30;99391.94;;;21.43;nan
41246;BME280;53880;47.526;18.986;2024-03-29T10:39:49;99378.22;;;21.38;nan
41246;BME280;53880;47.526;18.986;2024-03-29T10:42:07;99389.78;;;21.38;nan
41246;BME280;53880;47.526;18.986;2024-03-29T10:44:28;99386.09;;;21.39;nan
41246;BME280;53880;47.526;18.986;2024-03-29T10:46:50;99385.09;;;21.40;nan
41246;BME280;53880;47.526;18.986;2024-03-29T10:49:09;99374.16;;;21.42;nan
41246;BME280;53880;47.526;18.986;2024-03-29T10:51:34;99375.00;;;21.42;nan
41246;BME280;53880;47.526;18.986;2024-03-29T10:53:51;99372.44;;;21.49;nan
41246;BME280;53880;47.526;18.986;2024-03-29T10:56:12;99356.66;;;21.54;nan
41246;BME280;53880;47.526;18.986;2024-03-29T10:58:32;99355.41;;;21.64;nan
41246;BME280;53880;47.526;18.986;2024-03-29T11:00:56;99333.88;;;21.72;nan
41246;BME280;53880;47.526;18.986;2024-03-29T11:03:19;99336.66;;;21.79;nan
41246;BME280;53880;47.526;18.986;2024-03-29T11:05:44;99330.09;;;21.81;nan
41246;BME280;53880;47.526;18.986;2024-03-29T11:08:06;99328.56;;;21.87;nan
41246;BME280;53880;47.526;18.986;2024-03-29T11:15:27;99321.91;;;21.83;nan
41246;BME280;53880;47.526;18.986;2024-03-29T11:17:47;99315.53;;;21.84;nan
41246;BME280;53880;47.526;18.986;2024-03-29T11:20:07;99305.44;;;21.86;nan
41246;BME280;53880;47.526;18.986;2024-03-29T11:22:23;99303.88;;;21.91;nan
41246;BME280;53880;47.526;18.986;2024-03-29T11:24:41;99301.84;;;21.93;nan
41246;BME280;53880;47.526;18.986;2024-03-29T11:26:58;99300.00;;;21.94;nan
41246;BME280;53880;47.526;18.986;2024-03-29T11:29:21;99290.09;;;21.94;nan
41246;BME280;53880;47.526;18.986;2024-03-29T11:31:39;99290.56;;;21.98;nan
41246;BME280;53880;47.526;18.986;2024-03-29T11:33:59;99296.41;;;22.02;nan
41246;BME280;53880;47.526;18.986;2024-03-29T11:36:28;99293.88;;;22.00;nan
41246;BME280;53880;47.526;18.986;2024-03-29T11:38:48;99295.06;;;21.97;nan
41246;BME280;53880;47.526;18.986;2024-03-29T11:41:11;99294.44;;;21.95;nan
41246;BME280;53880;47.526;18.986;2024-03-29T11:43:26;99282.41;;;21.91;nan
41246;BME280;53880;47.526;18.986;2024-03-29T11:45:51;99292.88;;;21.86;nan
41246;BME280;53880;47.526;18.986;2024-03-29T11:48:15;99285.00;;;21.85;nan
41246;BME280;53880;47.526;18.986;2024-03-29T11:50:32;99287.03;;;21.83;nan
41246;BME280;53880;47.526;18.986;2024-03-29T11:52:47;99284.53;;;21.81;nan
41246;BME280;53880;47.526;18.986;2024-03-29T11:55:05;99282.84;;;21.80;nan
41246;BME280;53880;47.526;18.986;2024-03-29T11:57:23;99284.06;;;21.78;nan
41246;BME280;53880;47.526;18.986;2024-03-29T11:59:40;99278.06;;;21.76;nan
41246;BME280;53880;47.526;18.986;2024-03-29T12:01:58;99278.22;;;21.74;nan
41246;BME280;53880;47.526;18.986;2024-03-29T12:04:23;99275.72;;;21.73;nan
41246;BME280;53880;47.526;18.986;2024-03-29T12:06:41;99273.25;;;21.71;nan
41246;BME280;53880;47.526;18.986;2024-03-29T12:09:02;99260.19;;;21.68;nan
41246;BME280;53880;47.526;18.986;2024-03-29T12:11:19;99266.75;;;21.66;nan
41246;BME280;53880;47.526;18.986;2024-03-29T12:13:39;99260.53;;;21.65;nan
41246;BME280;53880;47.526;18.986;2024-03-29T12:15:59;99256.22;;;21.64;nan
41246;BME280;53880;47.526;18.986;2024-03-29T12:18:14;99259.09;;;21.63;nan
41246;BME280;53880;47.526;18.986;2024-03-29T12:20:37;99257.59;;;21.60;nan
41246;BME280;53880;47.526;18.986;2024-03-29T12:22:55;99265.00;;;21.58;nan
41246;BME280;53880;47.526;18.986;2024-03-29T12:25:15;99249.28;;;21.55;nan
41246;BME280;53880;47.526;18.986;2024-03-29T12:27:35;99242.44;;;21.53;nan
41246;BME280;53880;47.526;18.986;2024-03-29T12:29:55;99232.09;;;21.50;nan